Time;durP1;ratioP1;P1;durP2;ratioP2;P2;SDS_P1;SDS_P2;PMS_P1;PMS_P2;Temp;Humidity;BMP_temperature;BMP_pressure;BME280_temperature;BME280_humidity;BME280_pressure;Samples;Min_cycle;Max_cycle;Signal;HPM_P1;HPM_P2
2022/05/25 00:01:45;;;;;;;2.07;1.43;;;10.80;96.40;;;;;;4196747;28;20206;-68
2022/05/25 00:03:46;;;;;;;2.57;1.17;;;10.80;96.60;;;;;;4196689;28;20180;-68
2022/05/25 00:05:46;;;;;;;2.97;1.10;;;10.70;96.50;;;;;;4196025;28;20175;-68
2022/05/25 00:07:47;;;;;;;1.77;1.07;;;10.70;96.40;;;;;;4196179;28;20639;-68
2022/05/25 00:09:49;;;;;;;1.93;1.07;;;10.60;96.90;;;;;;4196335;28;20538;-68
2022/05/25 00:11:49;;;;;;;1.27;1.17;;;10.60;97.00;;;;;;4196642;28;20190;-68
2022/05/25 00:13:50;;;;;;;2.10;1.23;;;10.60;97.10;;;;;;4196610;28;20637;-68
2022/05/25 00:15:51;;;;;;;1.63;1.00;;;10.60;97.10;;;;;;4195655;28;20182;-69
2022/05/25 00:17:51;;;;;;;1.37;0.90;;;10.60;97.10;;;;;;4196154;28;20187;-68
2022/05/25 00:20:01;;;;;;;1.40;0.97;;;10.70;96.90;;;;;;4196592;28;20600;-68
2022/05/25 00:22:01;;;;;;;1.57;1.10;;;10.60;96.50;;;;;;4196416;28;20279;-68
2022/05/25 00:24:02;;;;;;;1.03;0.93;;;10.50;96.50;;;;;;4196210;28;20168;-68
2022/05/25 00:26:02;;;;;;;2.10;0.90;;;10.50;96.50;;;;;;4195499;28;20175;-68
2022/05/25 00:28:05;;;;;;;1.30;1.03;;;10.50;96.70;;;;;;4196236;28;20760;-68
2022/05/25 00:30:07;;;;;;;0.90;0.83;;;10.50;96.90;;;;;;4196312;28;20638;-68
2022/05/25 00:32:09;;;;;;;0.80;0.80;;;10.60;96.90;;;;;;4195969;28;20215;-68
2022/05/25 00:34:09;;;;;;;1.23;1.10;;;10.50;97.10;;;;;;4196152;28;20205;-68
2022/05/25 00:36:11;;;;;;;1.00;1.00;;;10.50;96.80;;;;;;4195732;28;20191;-68
2022/05/25 00:38:11;;;;;;;1.37;1.10;;;10.50;97.10;;;;;;4195511;28;20301;-68
2022/05/25 00:40:17;;;;;;;1.10;0.90;;;10.60;96.70;;;;;;4195992;28;20897;-68
2022/05/25 00:42:17;;;;;;;2.20;0.90;;;10.60;96.80;;;;;;4195805;28;20191;-68
2022/05/25 00:44:18;;;;;;;0.83;0.83;;;10.60;96.60;;;;;;4195916;28;20215;-68
2022/05/25 00:46:21;;;;;;;1.53;1.10;;;10.60;96.50;;;;;;4195263;28;20650;-68
2022/05/25 00:48:31;;;;;;;2.20;1.10;;;10.60;96.20;;;;;;4195946;28;20308;-68
2022/05/25 00:51:12;;;;;;;1.30;0.83;;;10.70;95.90;;;;;;4195861;28;20206;-68
2022/05/25 00:52:52;;;;;;;1.10;1.00;;;10.70;96.00;;;;;;4196306;28;20204;-68
2022/05/25 00:54:58;;;;;;;1.10;1.00;;;10.60;96.40;;;;;;4211596;28;20186;-68
2022/05/25 00:57:03;;;;;;;2.77;1.17;;;10.70;96.20;;;;;;4195513;28;20160;-68
2022/05/25 00:59:10;;;;;;;1.00;0.90;;;10.70;96.40;;;;;;4194382;28;20246;-68
2022/05/25 01:01:10;;;;;;;1.70;1.00;;;10.80;96.00;;;;;;4195707;28;20198;-68
2022/05/25 01:03:13;;;;;;;1.83;0.90;;;10.80;96.00;;;;;;4195504;28;20203;-68
2022/05/25 01:05:18;;;;;;;1.20;1.10;;;10.80;96.20;;;;;;4195461;28;20681;-68
2022/05/25 01:07:43;;;;;;;2.20;2.00;;;10.80;95.90;;;;;;4195157;28;20275;-68
2022/05/25 01:10:21;;;;;;;2.37;1.00;;;10.80;95.80;;;;;;4195600;28;20202;-68
2022/05/25 01:12:52;;;;;;;1.00;0.90;;;10.70;96.00;;;;;;4195009;28;20194;-68
2022/05/25 01:15:21;;;;;;;1.63;1.17;;;10.70;95.60;;;;;;4178945;28;20157;-68
2022/05/25 01:17:40;;;;;;;1.10;1.00;;;10.70;96.00;;;;;;4179379;28;20667;-68
2022/05/25 01:20:02;;;;;;;1.90;0.97;;;10.70;96.10;;;;;;4179483;28;20202;-68
2022/05/25 01:22:31;;;;;;;1.00;0.90;;;10.70;96.20;;;;;;4180377;28;20220;-68
2022/05/25 01:24:50;;;;;;;1.00;1.00;;;10.60;96.40;;;;;;4179043;28;20258;-68
2022/05/25 01:27:16;;;;;;;1.50;0.90;;;10.50;97.00;;;;;;4178134;28;20699;-68
2022/05/25 01:29:23;;;;;;;1.47;1.03;;;10.60;97.20;;;;;;4179312;28;21004;-68
2022/05/25 01:31:32;;;;;;;2.43;1.20;;;10.70;96.60;;;;;;4179022;28;20183;-68
2022/05/25 01:33:48;;;;;;;1.13;1.00;;;10.60;96.80;;;;;;4178767;28;20176;-69
2022/05/25 01:35:55;;;;;;;3.80;1.10;;;10.50;97.30;;;;;;4178490;28;20246;-69
2022/05/25 01:38:33;;;;;;;1.10;1.00;;;10.50;98.20;;;;;;4178739;28;20257;-68
2022/05/25 01:40:52;;;;;;;1.40;1.20;;;10.40;97.90;;;;;;4179062;28;20172;-69
2022/05/25 01:43:06;;;;;;;1.00;1.00;;;10.40;97.80;;;;;;4178793;28;20195;-69
2022/05/25 01:45:08;;;;;;;1.10;1.00;;;10.30;97.90;;;;;;4183516;28;20255;-68
2022/05/25 01:47:11;;;;;;;1.03;0.93;;;10.20;97.90;;;;;;4183925;28;20642;-68
2022/05/25 01:49:16;;;;;;;1.20;1.10;;;10.30;98.00;;;;;;4184458;28;20188;-68
2022/05/25 01:51:21;;;;;;;1.50;1.27;;;10.30;98.20;;;;;;4184016;28;20670;-68
2022/05/25 01:53:27;;;;;;;1.00;1.00;;;10.30;98.40;;;;;;4183944;28;20229;-68
2022/05/25 01:55:36;;;;;;;1.10;1.00;;;10.20;98.30;;;;;;4183842;28;20536;-68
2022/05/25 01:57:42;;;;;;;1.37;1.27;;;10.20;98.40;;;;;;4216279;28;20185;-68
2022/05/25 01:59:43;;;;;;;1.60;1.17;;;10.20;98.40;;;;;;4216362;28;20191;-68
2022/05/25 02:04:21;;;;;;;1.27;1.17;;;10.20;98.10;;;;;;4184367;28;20210;-69
2022/05/25 02:06:45;;;;;;;0.97;0.97;;;10.30;98.60;;;;;;4183465;28;20160;-69
2022/05/25 02:09:23;;;;;;;1.57;1.03;;;10.30;98.50;;;;;;4183922;28;20271;-69
2022/05/25 02:11:38;;;;;;;1.53;1.17;;;10.30;98.50;;;;;;4184214;28;20659;-69
2022/05/25 02:14:30;;;;;;;1.00;0.90;;;10.30;98.40;;;;;;4183942;28;20254;-69
2022/05/25 02:16:49;;;;;;;3.27;1.07;;;10.10;98.50;;;;;;4173118;28;20210;-69
2022/05/25 02:18:55;;;;;;;2.80;1.00;;;10.10;98.50;;;;;;4200492;28;20203;-69
2022/05/25 02:21:14;;;;;;;1.50;1.10;;;10.10;98.60;;;;;;4200420;28;20755;-69
2022/05/25 02:23:25;;;;;;;1.07;1.07;;;10.20;98.50;;;;;;4200320;28;20708;-69
2022/05/25 02:25:47;;;;;;;1.13;0.87;;;10.10;98.30;;;;;;4199985;28;20171;-69
2022/05/25 02:28:05;;;;;;;1.00;0.90;;;10.20;97.90;;;;;;4200860;28;20206;-69
2022/05/25 02:30:13;;;;;;;1.60;1.00;;;10.20;98.00;;;;;;4200593;28;20240;-69
2022/05/25 02:32:36;;;;;;;1.87;1.30;;;10.20;97.70;;;;;;4200777;28;20573;-69
2022/05/25 02:34:40;;;;;;;1.73;1.20;;;10.20;98.00;;;;;;4200256;28;20198;-69
2022/05/25 02:36:57;;;;;;;1.10;0.90;;;10.30;97.60;;;;;;4199746;28;20187;-69
2022/05/25 02:38:57;;;;;;;1.70;1.00;;;10.20;97.60;;;;;;4199028;28;20211;-69
2022/05/25 02:41:11;;;;;;;1.47;0.90;;;10.20;97.60;;;;;;4200478;28;20202;-69
2022/05/25 02:43:11;;;;;;;1.43;1.07;;;10.20;97.40;;;;;;4200685;28;20198;-69
2022/05/25 02:45:13;;;;;;;1.10;0.90;;;10.20;97.70;;;;;;4200142;28;20604;-69
2022/05/25 02:47:14;;;;;;;1.10;1.00;;;10.20;97.70;;;;;;4200173;28;20194;-69
2022/05/25 02:49:15;;;;;;;0.80;0.80;;;10.10;97.70;;;;;;4200557;28;20184;-69
2022/05/25 02:51:16;;;;;;;1.00;0.90;;;10.10;97.90;;;;;;4200432;28;20654;-69
2022/05/25 02:53:17;;;;;;;4.27;1.40;;;10.00;97.90;;;;;;4196677;28;20210;-68
2022/05/25 02:55:18;;;;;;;2.27;1.50;;;10.00;98.10;;;;;;4196267;28;20611;-69
2022/05/25 02:57:19;;;;;;;2.43;0.97;;;10.00;98.30;;;;;;4195413;28;20198;-69
2022/05/25 02:59:19;;;;;;;2.60;0.90;;;10.00;98.50;;;;;;4197596;28;20226;-69
2022/05/25 03:01:20;;;;;;;1.73;1.03;;;10.00;98.60;;;;;;4197540;28;20253;-69
2022/05/25 03:03:21;;;;;;;1.70;1.30;;;10.00;98.30;;;;;;4197579;28;20199;-68
2022/05/25 03:05:22;;;;;;;1.50;1.10;;;10.00;98.60;;;;;;4195821;28;20286;-69
2022/05/25 03:07:22;;;;;;;1.30;1.00;;;10.00;97.90;;;;;;4197563;28;20241;-69
2022/05/25 03:09:23;;;;;;;1.20;1.00;;;10.10;97.90;;;;;;4197169;28;20187;-69
2022/05/25 03:11:24;;;;;;;2.60;1.07;;;10.00;98.50;;;;;;4197068;28;20190;-70
2022/05/25 03:13:24;;;;;;;1.53;1.10;;;9.90;98.70;;;;;;4197121;28;20285;-69
2022/05/25 03:15:26;;;;;;;1.17;1.07;;;10.00;98.40;;;;;;4196703;28;20179;-69
2022/05/25 03:17:26;;;;;;;0.90;0.90;;;9.90;98.60;;;;;;4196658;28;20187;-69
2022/05/25 03:19:27;;;;;;;0.90;0.90;;;9.90;98.70;;;;;;4197289;28;20293;-69
2022/05/25 03:21:27;;;;;;;1.57;1.00;;;9.80;99.10;;;;;;4197287;28;20241;-69
2022/05/25 03:23:28;;;;;;;1.73;1.20;;;9.80;99.20;;;;;;4196949;28;20210;-68
2022/05/25 03:25:28;;;;;;;3.27;1.50;;;9.70;99.20;;;;;;4196595;28;20195;-69
2022/05/25 03:27:29;;;;;;;1.30;1.20;;;9.70;99.30;;;;;;4197227;28;20355;-69
2022/05/25 03:29:30;;;;;;;2.00;1.10;;;9.70;99.50;;;;;;4197113;28;20232;-69
2022/05/25 03:31:31;;;;;;;1.50;1.10;;;9.70;99.50;;;;;;4197425;28;20317;-69
2022/05/25 03:33:33;;;;;;;1.47;1.20;;;9.70;99.40;;;;;;4197059;28;20210;-69
2022/05/25 03:35:33;;;;;;;2.90;1.20;;;9.80;99.80;;;;;;4196447;28;20596;-69
2022/05/25 03:37:34;;;;;;;1.30;1.20;;;9.70;99.60;;;;;;4197187;28;20191;-69
2022/05/25 03:39:35;;;;;;;1.33;1.13;;;9.80;99.30;;;;;;4197017;28;20203;-69
2022/05/25 03:41:35;;;;;;;1.20;1.07;;;9.90;98.90;;;;;;4196764;28;20179;-69
2022/05/25 03:43:38;;;;;;;1.27;1.10;;;9.90;98.60;;;;;;4196980;28;20189;-69
2022/05/25 03:45:39;;;;;;;1.30;1.20;;;9.80;98.70;;;;;;4196404;28;20172;-69
2022/05/25 03:47:39;;;;;;;1.77;1.23;;;9.70;98.90;;;;;;4196719;28;20213;-69
2022/05/25 03:49:40;;;;;;;4.00;1.13;;;9.60;99.60;;;;;;4196157;28;20653;-69
2022/05/25 03:51:40;;;;;;;1.00;1.00;;;9.70;99.40;;;;;;4196116;28;20190;-69
2022/05/25 03:53:42;;;;;;;1.87;1.10;;;9.80;99.20;;;;;;4196289;28;20183;-69
2022/05/25 03:55:43;;;;;;;0.90;0.90;;;9.80;98.80;;;;;;4195652;28;20214;-69
2022/05/25 03:57:43;;;;;;;1.10;1.00;;;9.80;98.70;;;;;;4196133;28;20172;-68
2022/05/25 03:59:45;;;;;;;1.17;1.00;;;9.80;98.80;;;;;;4196087;28;20214;-68
2022/05/25 04:01:45;;;;;;;1.07;0.97;;;9.80;98.80;;;;;;4196100;28;20174;-68
2022/05/25 04:03:46;;;;;;;1.30;1.20;;;9.80;98.60;;;;;;4196318;28;20209;-68
2022/05/25 04:05:46;;;;;;;2.43;1.10;;;9.80;98.60;;;;;;4195279;28;20264;-68
2022/05/25 04:07:48;;;;;;;1.07;1.00;;;9.70;98.50;;;;;;4195680;28;20183;-68
2022/05/25 04:09:49;;;;;;;2.47;1.30;;;9.70;98.70;;;;;;4195548;28;20178;-68
2022/05/25 04:11:50;;;;;;;1.10;1.00;;;9.70;98.60;;;;;;4195987;28;20786;-69
2022/05/25 04:13:50;;;;;;;1.53;1.10;;;9.70;98.70;;;;;;4196344;28;20182;-68
2022/05/25 04:15:51;;;;;;;1.20;1.10;;;9.70;98.40;;;;;;4195297;28;20244;-68
2022/05/25 04:17:52;;;;;;;3.63;1.20;;;9.50;98.40;;;;;;4195910;28;20727;-68
2022/05/25 04:19:52;;;;;;;1.20;1.10;;;9.40;98.90;;;;;;4196038;28;20650;-68
2022/05/25 04:21:53;;;;;;;1.20;1.10;;;9.50;99.10;;;;;;4195837;28;20214;-68
2022/05/25 04:23:53;;;;;;;2.10;1.27;;;9.40;99.30;;;;;;4195934;28;20179;-68
2022/05/25 04:25:54;;;;;;;0.90;0.90;;;9.40;99.30;;;;;;4195360;28;20270;-68
2022/05/25 04:27:57;;;;;;;1.93;0.97;;;9.40;99.40;;;;;;4195896;28;20182;-68
2022/05/25 04:29:57;;;;;;;3.50;1.20;;;9.50;99.50;;;;;;4195973;28;20555;-68
2022/05/25 04:31:58;;;;;;;1.60;1.17;;;9.40;99.30;;;;;;4195728;28;20286;-68
2022/05/25 04:33:58;;;;;;;1.90;1.20;;;9.40;99.80;;;;;;4195766;28;20172;-68
2022/05/25 04:35:59;;;;;;;1.30;1.20;;;9.40;99.80;;;;;;4195113;28;20405;-68
2022/05/25 04:37:59;;;;;;;1.27;1.03;;;9.50;99.80;;;;;;4195665;28;20266;-68
2022/05/25 04:40:00;;;;;;;4.00;1.20;;;9.60;99.50;;;;;;4196166;28;20180;-68
2022/05/25 04:42:00;;;;;;;1.10;1.00;;;9.80;99.00;;;;;;4195897;28;20201;-69
2022/05/25 04:44:03;;;;;;;2.20;1.00;;;9.80;98.50;;;;;;4196046;28;20549;-68
2022/05/25 04:46:12;;;;;;;1.17;1.07;;;9.90;98.70;;;;;;4195397;28;20183;-68
2022/05/25 04:48:15;;;;;;;1.97;1.53;;;10.00;98.20;;;;;;4195917;28;20186;-68
2022/05/25 04:50:19;;;;;;;1.10;1.00;;;10.00;98.20;;;;;;4195993;28;20210;-68
2022/05/25 04:52:19;;;;;;;1.37;1.20;;;10.00;97.50;;;;;;4195923;28;20209;-68
2022/05/25 04:54:20;;;;;;;4.97;1.10;;;10.00;98.10;;;;;;4196018;28;20172;-67
2022/05/25 04:58:45;;;;;;;1.63;1.30;;;10.30;96.60;;;;;;4195902;28;20252;-66
2022/05/25 05:00:46;;;;;;;1.37;1.27;;;10.20;96.50;;;;;;4195854;28;20174;-67
2022/05/25 05:02:46;;;;;;;1.83;1.10;;;10.20;96.20;;;;;;4195846;28;20274;-68
2022/05/25 05:04:47;;;;;;;1.20;1.10;;;10.20;95.90;;;;;;4195782;28;20215;-69
2022/05/25 05:06:49;;;;;;;1.50;1.10;;;10.40;94.70;;;;;;4195107;28;20187;-69
2022/05/25 05:08:49;;;;;;;3.53;1.20;;;10.50;94.50;;;;;;4195335;28;20236;-69
2022/05/25 05:10:50;;;;;;;1.97;1.00;;;10.30;94.00;;;;;;4194272;28;20211;-69
2022/05/25 05:12:51;;;;;;;1.20;1.10;;;10.40;94.80;;;;;;4195452;28;20246;-68
2022/05/25 05:14:51;;;;;;;0.90;0.90;;;10.50;94.90;;;;;;4195528;28;20183;-68
2022/05/25 05:16:59;;;;;;;3.60;1.10;;;10.60;94.40;;;;;;4194760;28;20183;-68
2022/05/25 05:19:00;;;;;;;2.60;1.10;;;10.60;93.40;;;;;;4195021;28;20252;-69
2022/05/25 05:21:01;;;;;;;1.10;1.00;;;10.70;93.10;;;;;;4195639;28;20712;-69
2022/05/25 05:23:01;;;;;;;1.90;1.07;;;10.70;92.90;;;;;;4195203;28;20267;-68
2022/05/25 05:25:03;;;;;;;2.10;1.20;;;10.90;92.10;;;;;;4194888;28;20182;-69
2022/05/25 05:27:06;;;;;;;2.10;1.13;;;10.70;92.90;;;;;;4194562;28;20643;-68
2022/05/25 05:29:07;;;;;;;2.37;1.00;;;10.60;94.10;;;;;;4195037;28;20175;-69
2022/05/25 05:31:09;;;;;;;2.17;1.00;;;10.50;94.00;;;;;;4195173;28;20180;-69
2022/05/25 05:33:09;;;;;;;2.77;1.03;;;10.40;94.60;;;;;;4195127;28;20951;-69
2022/05/25 05:35:10;;;;;;;2.10;1.10;;;10.40;95.00;;;;;;4194703;28;20179;-69
2022/05/25 05:37:22;;;;;;;2.00;1.00;;;10.40;95.30;;;;;;4194562;28;20229;-68
2022/05/25 05:39:27;;;;;;;1.10;1.00;;;10.40;94.30;;;;;;4194890;28;20195;-69
2022/05/25 05:41:39;;;;;;;3.57;1.00;;;10.30;94.20;;;;;;4194795;28;20182;-69
2022/05/25 05:43:40;;;;;;;2.00;1.10;;;10.30;93.80;;;;;;4194858;28;20159;-68
2022/05/25 05:45:43;;;;;;;1.23;1.00;;;10.40;93.50;;;;;;4194155;28;20250;-68
2022/05/25 05:47:52;;;;;;;0.90;0.90;;;10.40;93.80;;;;;;4194717;28;20171;-68
2022/05/25 05:49:53;;;;;;;1.77;1.27;;;10.40;94.30;;;;;;4194710;28;20179;-69
2022/05/25 05:51:54;;;;;;;1.10;1.00;;;10.30;94.20;;;;;;4194816;28;20203;-68
2022/05/25 05:53:54;;;;;;;1.47;0.87;;;10.40;94.60;;;;;;4194901;28;20176;-68
2022/05/25 05:55:57;;;;;;;1.07;1.07;;;10.40;94.30;;;;;;4194140;28;20183;-69
2022/05/25 05:57:58;;;;;;;0.83;0.83;;;10.40;94.30;;;;;;4194705;28;20912;-68
2022/05/25 05:59:59;;;;;;;3.47;1.00;;;10.40;94.60;;;;;;4194157;28;20251;-68
2022/05/25 06:02:00;;;;;;;1.93;1.07;;;10.50;94.20;;;;;;4194769;28;20191;-68
2022/05/25 06:04:00;;;;;;;0.80;0.80;;;10.60;94.10;;;;;;4194913;28;20694;-68
2022/05/25 06:06:01;;;;;;;1.57;0.90;;;10.60;93.60;;;;;;4194184;28;20179;-69
2022/05/25 06:08:07;;;;;;;0.93;0.93;;;10.70;93.30;;;;;;4194756;28;20540;-69
2022/05/25 06:10:08;;;;;;;1.13;0.90;;;10.80;92.50;;;;;;4194673;28;20713;-69
2022/05/25 06:12:09;;;;;;;1.03;0.90;;;11.00;91.40;;;;;;4194639;28;20279;-69
2022/05/25 06:14:10;;;;;;;2.90;0.90;;;11.00;90.50;;;;;;4194650;28;20183;-68
2022/05/25 06:20:49;;;;;;;0.97;0.87;;;11.00;92.30;;;;;;4194328;28;20226;-68
2022/05/25 06:22:50;;;;;;;1.10;0.90;;;11.10;91.70;;;;;;4194405;28;20204;-68
2022/05/25 06:24:52;;;;;;;0.80;0.80;;;11.10;92.00;;;;;;4194434;28;20211;-68
2022/05/25 06:26:53;;;;;;;1.27;0.70;;;11.10;91.90;;;;;;4193827;28;20168;-68
2022/05/25 06:28:53;;;;;;;1.97;0.67;;;11.10;91.20;;;;;;4194499;28;20184;-68
2022/05/25 06:30:54;;;;;;;2.00;0.67;;;11.40;82.00;;;;;;4211827;28;20187;-69
2022/05/25 06:32:54;;;;;;;1.13;0.90;;;11.50;80.00;;;;;;4197333;28;20226;-68
2022/05/25 06:34:55;;;;;;;0.83;0.60;;;11.60;78.80;;;;;;4197454;28;20930;-69
2022/05/25 06:36:55;;;;;;;1.10;0.93;;;11.60;80.30;;;;;;4196835;28;20651;-68
2022/05/25 06:38:57;;;;;;;1.37;0.80;;;11.50;78.30;;;;;;4197349;28;20705;-68
2022/05/25 06:40:57;;;;;;;1.60;0.77;;;11.60;78.60;;;;;;4197289;28;20560;-68
2022/05/25 06:42:58;;;;;;;1.73;0.80;;;11.80;75.90;;;;;;4197295;28;20262;-68
2022/05/25 06:44:58;;;;;;;1.27;1.00;;;12.00;74.10;;;;;;4197075;28;20191;-68
2022/05/25 06:46:59;;;;;;;1.43;0.70;;;12.10;76.90;;;;;;4196931;28;20737;-68
2022/05/25 06:49:00;;;;;;;0.50;0.50;;;12.00;78.00;;;;;;4197230;28;20198;-68
2022/05/25 06:51:21;;;;;;;2.10;0.83;;;12.00;76.50;;;;;;4197310;28;20210;-68
2022/05/25 06:53:22;;;;;;;1.67;1.03;;;12.10;76.60;;;;;;4197100;28;20791;-68
2022/05/25 06:55:23;;;;;;;0.60;0.60;;;12.10;77.40;;;;;;4196359;28;20182;-68
2022/05/25 06:57:25;;;;;;;0.63;0.63;;;12.10;76.50;;;;;;4197115;28;20213;-68
2022/05/25 06:59:25;;;;;;;1.37;0.80;;;12.20;74.30;;;;;;4196938;28;20214;-68
2022/05/25 07:01:26;;;;;;;1.03;0.70;;;12.30;77.60;;;;;;4197199;28;20567;-68
2022/05/25 07:03:26;;;;;;;1.00;0.70;;;12.30;81.80;;;;;;4197024;28;20219;-68
2022/05/25 07:05:27;;;;;;;0.77;0.63;;;12.40;80.60;;;;;;4196299;28;20183;-68
2022/05/25 07:07:27;;;;;;;3.37;0.80;;;12.40;81.30;;;;;;4197152;28;20179;-68
2022/05/25 07:09:28;;;;;;;1.77;0.60;;;12.70;80.10;;;;;;4196896;28;20175;-68
2022/05/25 07:11:29;;;;;;;1.70;0.80;;;12.90;71.40;;;;;;4196666;28;20188;-68
2022/05/25 07:13:30;;;;;;;0.97;0.80;;;13.00;69.80;;;;;;4196954;28;20257;-68
2022/05/25 07:15:30;;;;;;;0.93;0.73;;;13.20;71.10;;;;;;4196237;28;20205;-68
2022/05/25 07:17:33;;;;;;;1.40;0.90;;;13.40;70.80;;;;;;4196845;28;20225;-68
2022/05/25 07:19:33;;;;;;;2.70;0.90;;;13.60;68.60;;;;;;4196899;28;20200;-68
2022/05/25 07:21:34;;;;;;;1.33;0.80;;;13.70;68.50;;;;;;4196525;28;20196;-68
2022/05/25 07:23:36;;;;;;;0.87;0.80;;;13.70;72.60;;;;;;4196866;28;20179;-68
2022/05/25 07:25:36;;;;;;;1.43;0.80;;;13.70;74.50;;;;;;4196071;28;20756;-68
2022/05/25 07:27:37;;;;;;;0.93;0.83;;;13.60;74.70;;;;;;4196669;28;20180;-68
2022/05/25 07:29:37;;;;;;;2.93;1.03;;;13.50;69.80;;;;;;4196704;28;20545;-68
2022/05/25 07:31:47;;;;;;;3.17;1.00;;;13.60;67.10;;;;;;4196577;28;20267;-68
2022/05/25 07:33:54;;;;;;;1.03;0.77;;;13.70;66.00;;;;;;4196990;28;20586;-68
2022/05/25 07:35:55;;;;;;;1.57;0.70;;;13.60;65.50;;;;;;4196087;28;20164;-68
2022/05/25 07:37:58;;;;;;;2.33;0.80;;;13.70;65.10;;;;;;4196395;28;20608;-68
2022/05/25 07:40:02;;;;;;;0.70;0.70;;;13.90;65.20;;;;;;4196610;28;20186;-69
2022/05/25 07:42:04;;;;;;;2.53;1.00;;;14.00;65.90;;;;;;4195896;28;20207;-68
2022/05/25 07:44:09;;;;;;;2.83;0.93;;;14.10;66.10;;;;;;4196445;28;20212;-68
2022/05/25 07:46:09;;;;;;;1.33;0.80;;;14.20;65.40;;;;;;4195875;28;20194;-68
2022/05/25 07:48:10;;;;;;;2.17;0.90;;;14.30;66.80;;;;;;4196407;28;20609;-67
2022/05/25 07:50:11;;;;;;;1.20;1.10;;;14.30;62.60;;;;;;4196176;28;20205;-68
2022/05/25 07:52:13;;;;;;;1.33;0.90;;;14.60;64.30;;;;;;4196605;28;20986;-67
2022/05/25 07:54:14;;;;;;;1.67;0.90;;;15.00;69.20;;;;;;4196402;28;20557;-67
2022/05/25 07:56:15;;;;;;;1.87;0.90;;;15.30;70.00;;;;;;4195642;28;20203;-67
2022/05/25 07:58:16;;;;;;;0.90;0.80;;;15.80;62.70;;;;;;4196121;28;20207;-67
2022/05/25 08:00:19;;;;;;;1.13;0.70;;;16.20;57.10;;;;;;4196005;28;20187;-67
2022/05/25 08:07:13;;;;;;;1.27;0.97;;;16.10;54.50;;;;;;4195454;28;20182;-68
2022/05/25 08:09:13;;;;;;;2.17;1.10;;;15.60;53.70;;;;;;4196068;28;20649;-68
2022/05/25 08:11:16;;;;;;;1.10;0.83;;;15.40;56.00;;;;;;4194363;28;20578;-67
2022/05/25 08:13:17;;;;;;;0.67;0.67;;;15.50;55.70;;;;;;4193383;28;20199;-68
2022/05/25 08:15:18;;;;;;;1.63;0.80;;;15.30;55.40;;;;;;4194533;28;20183;-68
2022/05/25 08:17:20;;;;;;;1.63;0.70;;;15.30;55.50;;;;;;4194200;28;20176;-67
2022/05/25 08:19:21;;;;;;;1.07;0.90;;;15.40;54.40;;;;;;4194963;28;20272;-67
2022/05/25 08:21:21;;;;;;;0.70;0.70;;;15.30;55.30;;;;;;4194833;28;20222;-68
2022/05/25 08:23:22;;;;;;;0.80;0.70;;;15.40;55.40;;;;;;4195179;28;20348;-68
2022/05/25 08:25:22;;;;;;;1.60;0.80;;;15.10;57.10;;;;;;4194991;28;20176;-68
2022/05/25 08:27:23;;;;;;;0.80;0.80;;;15.10;56.60;;;;;;4195629;28;20209;-67
2022/05/25 08:29:25;;;;;;;1.27;0.90;;;15.30;59.20;;;;;;4195918;28;20175;-68
2022/05/25 08:31:25;;;;;;;1.20;0.70;;;15.70;57.50;;;;;;4195863;28;20262;-68
2022/05/25 08:33:26;;;;;;;2.57;1.10;;;16.20;55.90;;;;;;4195644;28;20257;-68
2022/05/25 08:35:27;;;;;;;1.37;0.70;;;16.50;55.70;;;;;;4195068;28;20214;-68
2022/05/25 08:37:28;;;;;;;0.90;0.80;;;16.70;55.20;;;;;;4195504;28;20188;-68
2022/05/25 08:39:29;;;;;;;1.20;1.10;;;17.00;57.00;;;;;;4195580;28;20512;-68
2022/05/25 08:41:33;;;;;;;0.80;0.80;;;17.30;53.50;;;;;;4195345;28;20186;-68
2022/05/25 08:43:45;;;;;;;1.67;0.80;;;17.30;50.10;;;;;;4195287;28;20585;-68
2022/05/25 08:45:53;;;;;;;1.57;0.90;;;16.80;50.10;;;;;;4194784;28;20214;-68
2022/05/25 08:47:57;;;;;;;1.53;1.00;;;17.00;48.80;;;;;;4195778;28;20175;-68
2022/05/25 08:49:58;;;;;;;0.70;0.70;;;17.10;49.00;;;;;;4195263;28;20180;-68
2022/05/25 08:52:06;;;;;;;0.83;0.70;;;16.90;49.70;;;;;;4195326;28;20208;-68
2022/05/25 08:54:07;;;;;;;1.57;0.90;;;17.10;50.50;;;;;;4194421;28;20180;-67
2022/05/25 08:56:26;;;;;;;0.90;0.80;;;17.40;50.70;;;;;;4194643;28;20233;-68
2022/05/25 08:58:36;;;;;;;0.80;0.80;;;18.00;50.20;;;;;;4195314;28;20211;-68
2022/05/25 09:00:37;;;;;;;0.73;0.73;;;18.30;51.90;;;;;;4195417;28;20218;-68
2022/05/25 09:03:16;;;;;;;1.03;0.80;;;17.60;48.10;;;;;;4195385;28;20199;-68
2022/05/25 09:05:18;;;;;;;1.80;0.90;;;17.30;50.40;;;;;;4150120;28;20195;-68
2022/05/25 09:07:29;;;;;;;0.67;0.60;;;17.40;50.10;;;;;;4194885;28;20168;-68
2022/05/25 09:09:39;;;;;;;1.50;0.80;;;17.50;51.30;;;;;;4195877;28;20175;-68
2022/05/25 09:11:43;;;;;;;1.50;0.70;;;16.90;51.30;;;;;;4195325;28;20179;-68
2022/05/25 09:14:02;;;;;;;2.63;0.90;;;17.10;51.60;;;;;;4196354;28;20180;-68
2022/05/25 09:16:18;;;;;;;0.70;0.70;;;16.70;50.50;;;;;;4194258;28;20262;-68
2022/05/25 09:18:19;;;;;;;2.90;1.20;;;16.40;50.30;;;;;;4195422;28;20175;-68
2022/05/25 09:20:23;;;;;;;1.53;1.10;;;16.30;52.50;;;;;;4195617;28;20265;-68
2022/05/25 09:22:25;;;;;;;3.93;0.70;;;16.10;54.20;;;;;;4195884;28;20227;-68
2022/05/25 09:24:28;;;;;;;1.07;0.77;;;16.10;57.50;;;;;;4195659;28;20180;-68
2022/05/25 09:26:28;;;;;;;1.13;0.73;;;16.10;54.20;;;;;;4194821;28;20689;-68
2022/05/25 09:28:36;;;;;;;1.13;0.90;;;15.90;52.60;;;;;;4195903;28;20192;-68
2022/05/25 09:30:40;;;;;;;1.87;0.60;;;15.90;54.60;;;;;;4195264;28;20179;-68
2022/05/25 09:33:05;;;;;;;0.70;0.70;;;16.30;48.70;;;;;;4195387;28;20569;-68
2022/05/25 09:35:09;;;;;;;0.60;0.60;;;16.90;50.40;;;;;;4195134;28;20634;-68
2022/05/25 09:37:30;;;;;;;1.63;0.83;;;17.30;49.00;;;;;;4194994;28;20666;-68
2022/05/25 09:39:34;;;;;;;1.03;0.70;;;17.80;49.10;;;;;;4195500;28;20660;-68
2022/05/25 09:41:35;;;;;;;1.20;1.00;;;17.90;47.70;;;;;;4195449;28;20164;-68
2022/05/25 09:43:35;;;;;;;0.87;0.83;;;17.60;48.20;;;;;;4195417;28;20785;-68
2022/05/25 09:45:42;;;;;;;0.83;0.77;;;17.80;45.80;;;;;;4194669;28;20175;-68
2022/05/25 09:47:48;;;;;;;1.83;1.10;;;17.90;44.80;;;;;;4195059;28;20176;-68
2022/05/25 09:49:52;;;;;;;0.80;0.80;;;18.00;45.90;;;;;;4194619;28;20175;-68
2022/05/25 09:51:54;;;;;;;2.73;1.10;;;17.80;47.50;;;;;;4194594;28;20191;-68
2022/05/25 09:54:01;;;;;;;1.00;0.90;;;17.90;47.50;;;;;;4194747;28;20180;-68
2022/05/25 09:56:09;;;;;;;1.73;0.70;;;18.00;46.00;;;;;;4194218;28;20251;-68
2022/05/25 09:58:21;;;;;;;1.23;0.80;;;18.10;45.30;;;;;;4194794;28;20634;-68
2022/05/25 10:00:34;;;;;;;1.03;0.73;;;18.30;45.90;;;;;;4194685;28;20210;-67
2022/05/25 10:02:59;;;;;;;1.43;0.80;;;18.00;46.30;;;;;;4194887;28;20340;-67
2022/05/25 10:05:23;;;;;;;1.17;0.80;;;17.90;47.20;;;;;;4195124;28;20213;-69
2022/05/25 10:07:35;;;;;;;0.87;0.80;;;17.40;47.70;;;;;;4198245;28;20186;-68
2022/05/25 10:09:44;;;;;;;0.70;0.70;;;17.10;49.60;;;;;;4198152;28;20650;-68
2022/05/25 10:11:51;;;;;;;1.23;0.90;;;17.00;49.90;;;;;;4197516;28;20214;-68
2022/05/25 10:13:53;;;;;;;2.43;0.90;;;17.10;49.90;;;;;;4198267;28;20241;-68
2022/05/25 10:15:54;;;;;;;1.07;0.97;;;17.50;49.20;;;;;;4197186;28;20168;-68
2022/05/25 10:17:55;;;;;;;4.53;1.00;;;18.30;46.50;;;;;;4198003;28;20233;-67
2022/05/25 10:19:57;;;;;;;1.10;0.83;;;19.10;45.70;;;;;;4197639;28;20204;-67
2022/05/25 10:21:59;;;;;;;2.13;0.80;;;19.80;42.90;;;;;;4197853;28;20199;-68
2022/05/25 10:24:02;;;;;;;0.80;0.70;;;19.30;46.90;;;;;;4197996;28;20392;-67
2022/05/25 10:26:26;;;;;;;0.80;0.80;;;19.10;44.90;;;;;;4197132;28;20187;-67
2022/05/25 10:28:29;;;;;;;1.63;0.70;;;19.30;42.10;;;;;;4197732;28;20627;-68
2022/05/25 10:38:00;;;;;;;1.33;0.90;;;20.40;45.30;;;;;;4197575;28;20167;-67
2022/05/25 10:40:05;;;;;;;1.07;0.97;;;22.10;40.20;;;;;;4197301;28;20203;-67
2022/05/25 10:42:23;;;;;;;2.13;1.37;;;22.90;38.50;;;;;;4197387;28;20647;-68
2022/05/25 10:44:26;;;;;;;1.20;1.00;;;23.10;33.70;;;;;;4197615;28;20172;-67
2022/05/25 10:46:28;;;;;;;2.03;1.80;;;21.90;36.30;;;;;;4196972;28;20175;-67
2022/05/25 10:49:30;;;;;;;3.10;1.17;;;21.70;37.00;;;;;;4197471;28;20663;-68
2022/05/25 10:51:42;;;;;;;1.20;1.10;;;21.30;37.60;;;;;;4126570;28;20255;-68
2022/05/25 10:56:09;;;;;;;1.47;1.20;;;21.90;37.10;;;;;;4196958;28;20727;-68
2022/05/25 10:58:24;;;;;;;1.50;1.10;;;22.30;36.60;;;;;;4197316;28;20266;-68
2022/05/25 11:00:44;;;;;;;0.93;0.80;;;21.90;37.00;;;;;;4197209;28;20738;-68
2022/05/25 11:03:11;;;;;;;2.70;0.80;;;21.40;34.80;;;;;;4197400;28;20196;-68
2022/05/25 11:05:37;;;;;;;2.73;1.57;;;20.50;38.70;;;;;;4196901;28;20175;-68
2022/05/25 11:07:42;;;;;;;1.20;1.10;;;20.90;38.80;;;;;;4197349;28;20164;-68
2022/05/25 11:09:49;;;;;;;3.47;1.00;;;20.50;38.90;;;;;;4197146;28;20266;-68
2022/05/25 11:12:07;;;;;;;1.20;1.10;;;19.60;42.00;;;;;;4197083;28;20167;-67
2022/05/25 11:14:48;;;;;;;3.30;1.77;;;20.60;42.40;;;;;;4197526;28;20168;-68
2022/05/25 11:17:06;;;;;;;1.40;1.30;;;22.10;36.60;;;;;;4171593;28;20192;-68
2022/05/25 11:19:32;;;;;;;2.40;0.90;;;22.20;37.10;;;;;;4196699;28;20192;-68